Timeline UpdatesTrip UpdatesNews PostsPvt Posts♥♥Travel TipsAdmin PostsConv PostsFollowed PostsChat RequestsBlog PostsPNR Posts

Disclaimer
Search
 
 
Tue Oct 21, 2014 22:22:02 ISTHomeTrainsΣChainsAtlasPNRForumGalleryNewsFAQTripsMembersLoginFeedback
No Recent News for this Train
Other Trains in the News **new
Latest...
⇐ Return Journey: Train# 54824

54823/Jodhpur Hisar passenger (UnReserved)

Time-Table HAS CHANGED.
Sep 03 2014 (1:57PM)
Change Departure Station:
Change Arrival Station:
Post a Train Travel TipPost a Train Travel Tip **new
Post a Comment/Question/Picture/VideoPost a Comment/Question/Picture/Video
Pantry/Catering
✕ NO Pantry Car
✕ NO Catering
RSA - Rake Sharing
Rake/Coach Composition
7 general , 2 slr , total 9 coach.
Loco
ABR WDM - 3A.
News    PNR    Forum    Time-Table    Availability    Fare Chart    Map    Arr/Dep History    Trips    Gallery    ΣChains    X/O    Timeline    
Travel Time: 1h 0m    4 halts    Distance: 40 km    Avg Speed: 40 km/hr
Type: Passenger
Zone: NWR/North Western
Departs @ 11:10 (Avg 24m late)
Platform# ???
SMTWTFS
Jodhpur Junction/JU 
Arrives @ 12:10 (Avg 1h 9m late)
Platform# ???
SMTWTFS
Kheri Salwa/KSW 

4 halts. 5 intermediate Stations between Jodhpur Junction and Kheri Salwa

Show ALL intermediate Stations  Show Old Time-Table

#TrkCodeStation NameX/OArrivesAvgDepartsAvgHaltPFDay#KmSpeedElevZoneAddress
1|=-|JUJodhpur Junction (5)»  -11:10+24--10.028241mNWRJodhpur, Rajasthan
2|--|RKBRaikabagh Palace Junction (2)  11:15+4211:17+562m--12.338237mNWRJodhpur, Rajasthan
3|--|BNOBanarX  11:36+5411:38+1:032m--114.262213mNWRBanar, Rajasthan
4|--|JWLJajiwal  11:46+1:0411:48+1:082m--122.567228mNWRJodhpur, Rajasthan
5|--|AASAsranadaX  11:56+1:1011:58+1:112m--131.346251mNWRState Highway 58, Rajasthan
6|--|KSWKheri Salwa•  12:11 12:10+1:0912:13 12:11+1:102 1m--140.464269mNWRJajiwal, Rajasthan
7|--|PPRPipar Road Junction  12:19 12:17+1:1112:21 12:19+1:132m--146.951272mNWRState Highway 58, Rajasthan
8|--|SWFSathin Road  12:30 12:29+1:1312:32 12:30+1:142 1m--155.562284mNWRUMED, Rajasthan
9|--|UMEDUmed  12:41 12:40+1:1512:43 12:41+1:212 1m--165.861308mNWRJodhpur, Rajasthan
10|--|KXGKharia KhangarhX  12:53 12:51+1:2112:55 12:53+1:222m--176.023310mNWRKharia Khangar, Rajasthan
11|--|GOTNGotan (3)X  13:08 13:12+1:1613:10 13:14+1:182m--183.153323mNWRGotan, Rajasthan
12|--|JOMJogi Magra (1)  13:20 13:25+1:1713:22 13:27+1:182m1192.942335mNWRNagaur, Rajasthan
13|--|MTDMerta Road Junction (4)  13:42+1:1213:47+1:165m--1103.3103322mNWRPhalodi, Rajasthan
14|--|KQWKheduli (1)X  13:55 13:56+1:1713:57+1:172 1m--1118.717307mNWRRen, Rajasthan
15|--|RENRen  14:04+1:1814:06+1:182m--1120.763307mNWRNagaur, Rajasthan
16|--|JACJalsu  14:19+1:1714:21+1:192m--1134.448321mNWRNagaur, Rajasthan
17|--|JACNJalsu NanakX  14:28-14:30-2m--1140.013331mNWRREN, Rajasthan
18|--|DNADegana Junction (4)  14:56 15:05+5414:59 15:10+573 5m--1147.375339mNWRDegana, Rajasthan
19|--|KRCKiroda  15:09 15:20+5615:11 15:21+562 1m--1159.968351mNWRDegana, Rajasthan
20|--|KHTUKhatu  15:37 15:32+5115:39 15:33+522 1m--1172.353359mNWRKhatu Khurd, Rajasthan
21|--|CTKTChoti Khatu  15:45 15:39+1:0715:47 15:41+1:072m--1177.658338mNWRDegana, Rajasthan
22|--|PWPirwa  16:00 15:55-16:02 15:56-2 1m--1191.053337mNWRDegana, Rajasthan
23|--|KKNAKhunkhuna  16:10 16:03+4816:12 16:04+522 1m--1197.257350mNWRState Highway 60, Rajasthan
24|--|MBSKMarwar Balia  16:22 16:15-16:24 16:16-2 1m--1207.648335mNWRMarwar, Rajasthan
25|--|DIADidwana  16:30 16:23+4616:32 16:26+492 3m--1213.256342mNWRDidwana, Rajasthan
26|--|SVOSanvrad  16:45 16:40-16:47 16:41-2 1m--1226.456338mNWRDidwana, Rajasthan
27|--|BLSDBalsamand  16:55 16:50-16:57 16:51-2 1m--1234.848323mNWRDidwana, Rajasthan
28|--|LAULadnun (1)X  17:06 17:03+4217:08 17:05+432m--1244.322330mNWRNagaur District. 341306, Rajasthan
29|--|JSHJaswantgarh  17:16 17:18-17:18 17:19-2 1m--1249.013312mNWRSujangarh, Rajasthan
30|--|SUJHSujangarh  17:24 17:42+2517:26 17:45+252 3m--1254.161318mNWRSujangarh, Rajasthan
31|--|TLCTalchhapar  17:39 17:58+2417:41 18:00+242m--1267.464305mNWRSujangarh, Rajasthan
32|--|PIHParhiharaX  17:52 18:12+2517:54 18:14+312m--1280.233312mNWRSujangarh, Rajasthan
33|--|LOHALoha  18:09 18:35-18:11 18:36-2 1m--1291.736318mNWRRatangarh, Rajasthan
34|--|RTGHRatangarh JunctionX  18:50+2219:00+2010m--1300.072309mNWRRatangarh, Rajasthan
35|--|MIOMolisar  19:14+2819:15+291m--1316.960310mNWRChuru, Rajasthan
36|--|SMNNShri Makri Nath Nagar  19:21-19:22-1m--1323.039307mNWRChuru, Rajasthan
37|--|JOHJuharpura  19:27+3019:28+301m--1326.268302mNWRState Highway 69, Rajasthan
38|--|DEPDepalsar  19:36+3119:38+312m--1335.238292mNWRChuru, Rajasthan
39|--|CURChuru Junction (3)  19:50+3020:00+2910m--1342.880288mNWRChuru Junction, Rajasthan
40|--|ASLUAslu  20:11+3220:13+342m--1357.453284mNWRNational Highway 65, Rajasthan
41|--|SRSLSirsala20:23+2520:24+251m--1366.353275mNWRNational Highway 65, Rajasthan
42|--|DKXDudhwakharaX  20:30+3220:31+321m--1371.656262mNWRNational Highway 65, Rajasthan
43|--|HYLHadyal  20:45+3020:46+301m--1384.756255mNWRMDR 97, Rajasthan
44|--|DKWADokwa  20:54+3020:55+311m--1392.251251mNWRNational Highway 65, Rajasthan
45|--|SDLPSadulpur Junction  21:05+2621:10+255m--1400.640239mNWRRajgarh, Rajasthan
46!--!SURPSuratpura  21:16+2921:17+291m--1404.670239mNWRNational Highway 65, Rajasthan
47|--|JUPJhunpa  21:31+3021:32+301m--1421.078225mNWRDist. Bhiwani 127046, Haryana
48|--|SWNISiwani  21:47+3121:49+302m--1440.556210mNWRNational Highway 65, Haryana
49|--|CRWCharaud  22:01+3122:02+311m--1451.634212mNWRNational Highway 65, Haryana
50|--|HSRHisar Junction (6)  22:35+11---1470.5-215mNWRHisar, Haryana
Scroll to Top
Scroll to Bottom